Terminal Aerodrome Forecast
Issued by NWS

Home | Current Version | Previous Version | Text Only | Print | Product List | Glossary On
Versions: 1 2 3 4 5 6 7 8 9 10 11 12 13 14 15 16 17 18 19 20 21
000
FTUS43 KDVN 212300 RRA
TAFBRL
TAF
KBRL 212346Z 2200/2224 16011KT P6SM BKN025 OVC040
      TEMPO 2200/2204 OVC035
     FM220400 15010KT P6SM SCT020 OVC035
     FM221200 14012KT 2SM -RADZ BR BKN009 OVC020=

USA.gov is the U.S. government's official web portal to all federal, state and local government web resources and services.